SWA1496 KBOS-KBWI
Flight info
| Callsign | SWA1496 |
|---|---|
| Flight time | 1h 11m |
| Altitude | 30000 |
| Route | PATSS7 PATSS NELIE BIZEX Q75 MXE NUGGY TRISH4 |
| Aircraft | B38M/M-SDE1FGHILORVWXY/HB1 |
Departure
| Time | 2026-05-08 01:02 |
|---|---|
| Airport | Boston Logan International Airport (KBOS) |
Arrival
| Time | 2026-05-08 02:13 |
|---|---|
| Airport | Baltimore/Washington International Thurgood Marshall Airport (KBWI) |
| Time | Latitude | Longitude | Altitude | Speed | Heading |
|---|---|---|---|---|---|
| 2026-05-08 00:34 | 42.36323 | -71.01542 | 28 ft | 0 kts | 291° |
| 2026-05-08 00:34 | 42.36324 | -71.01548 | 28 ft | 0 kts | 291° |
| 2026-05-08 00:49 | 42.36317 | -71.01524 | 28 ft | 4 kts | 291° |
| 2026-05-08 00:49 | 42.36309 | -71.01496 | 28 ft | 3 kts | 292° |
| 2026-05-08 00:49 | 42.36295 | -71.01469 | 28 ft | 4 kts | 332° |
| 2026-05-08 00:50 | 42.36272 | -71.01464 | 28 ft | 4 kts | 14° |
| 2026-05-08 00:50 | 42.36260 | -71.01469 | 28 ft | 0 kts | 20° |
| 2026-05-08 00:52 | 42.36261 | -71.01469 | 28 ft | 0 kts | 20° |
| 2026-05-08 00:53 | 42.36267 | -71.01465 | 28 ft | 4 kts | 20° |
| 2026-05-08 00:53 | 42.36328 | -71.01436 | 28 ft | 14 kts | 20° |
| 2026-05-08 00:53 | 42.36341 | -71.01326 | 28 ft | 15 kts | 122° |
| 2026-05-08 00:53 | 42.36280 | -71.01195 | 28 ft | 18 kts | 121° |
| 2026-05-08 00:54 | 42.36224 | -71.01036 | 28 ft | 20 kts | 114° |
| 2026-05-08 00:54 | 42.36184 | -71.00918 | 28 ft | 5 kts | 114° |
| 2026-05-08 00:54 | 42.36182 | -71.00910 | 28 ft | 0 kts | 114° |
| 2026-05-08 00:54 | 42.36179 | -71.00901 | 28 ft | 3 kts | 114° |
| 2026-05-08 00:55 | 42.36162 | -71.00853 | 28 ft | 9 kts | 114° |
| 2026-05-08 00:55 | 42.36127 | -71.00744 | 29 ft | 16 kts | 112° |
| 2026-05-08 00:55 | 42.36080 | -71.00562 | 28 ft | 24 kts | 108° |
| 2026-05-08 00:55 | 42.36023 | -71.00332 | 28 ft | 27 kts | 109° |
| 2026-05-08 00:56 | 42.35975 | -71.00151 | 28 ft | 12 kts | 112° |
| 2026-05-08 00:56 | 42.35951 | -71.00087 | 28 ft | 5 kts | 122° |
| 2026-05-08 00:56 | 42.35950 | -71.00085 | 28 ft | 0 kts | 122° |
| 2026-05-08 00:57 | 42.35947 | -71.00078 | 28 ft | 2 kts | 124° |
| 2026-05-08 00:57 | 42.35921 | -71.00038 | 28 ft | 11 kts | 135° |
| 2026-05-08 00:57 | 42.35836 | -70.99923 | 28 ft | 22 kts | 135° |
| 2026-05-08 00:57 | 42.35740 | -70.99794 | 28 ft | 21 kts | 135° |
| 2026-05-08 00:58 | 42.35628 | -70.99646 | 28 ft | 24 kts | 136° |
| 2026-05-08 00:58 | 42.35509 | -70.99485 | 28 ft | 15 kts | 135° |
| 2026-05-08 00:58 | 42.35505 | -70.99480 | 28 ft | 0 kts | 134° |
| 2026-05-08 00:58 | 42.35497 | -70.99464 | 28 ft | 7 kts | 122° |
| 2026-05-08 00:59 | 42.35491 | -70.99390 | 28 ft | 1 kts | 74° |
| 2026-05-08 00:59 | 42.35492 | -70.99384 | 28 ft | 0 kts | 74° |
| 2026-05-08 01:00 | 42.35493 | -70.99379 | 28 ft | 1 kts | 74° |
| 2026-05-08 01:00 | 42.35494 | -70.99375 | 28 ft | 1 kts | 75° |
| 2026-05-08 01:00 | 42.35499 | -70.99347 | 28 ft | 6 kts | 76° |
| 2026-05-08 01:01 | 42.35561 | -70.99297 | 28 ft | 13 kts | 330° |
| 2026-05-08 01:01 | 42.35575 | -70.99311 | 28 ft | 0 kts | 315° |
| 2026-05-08 01:01 | 42.35579 | -70.99316 | 28 ft | 3 kts | 315° |
| 2026-05-08 01:01 | 42.35680 | -70.99450 | 28 ft | 54 kts | 316° |
| 2026-05-08 01:02 | 42.36122 | -71.00045 | 25 ft | 125 kts | 315° |
| 2026-05-08 01:02 | 42.36868 | -71.01019 | 168 ft | 166 kts | 316° |
| 2026-05-08 01:02 | 42.37722 | -71.02110 | 1034 ft | 159 kts | 314° |
| 2026-05-08 01:02 | 42.38413 | -71.03215 | 2028 ft | 159 kts | 302° |
| 2026-05-08 01:03 | 42.39019 | -71.04597 | 2589 ft | 182 kts | 300° |
| 2026-05-08 01:03 | 42.39695 | -71.06169 | 3190 ft | 204 kts | 300° |
| 2026-05-08 01:03 | 42.40439 | -71.07942 | 3751 ft | 228 kts | 295° |
| 2026-05-08 01:03 | 42.40711 | -71.10080 | 4559 ft | 243 kts | 266° |
| 2026-05-08 01:04 | 42.40141 | -71.12231 | 4796 ft | 255 kts | 238° |
| 2026-05-08 01:04 | 42.39063 | -71.14185 | 4911 ft | 262 kts | 237° |
| 2026-05-08 01:04 | 42.37988 | -71.16191 | 5581 ft | 262 kts | 237° |
| 2026-05-08 01:04 | 42.36923 | -71.18193 | 6689 ft | 264 kts | 237° |
| 2026-05-08 01:05 | 42.35849 | -71.20227 | 7679 ft | 266 kts | 237° |
| 2026-05-08 01:05 | 42.34771 | -71.22271 | 8763 ft | 268 kts | 237° |
| 2026-05-08 01:05 | 42.33686 | -71.24334 | 9816 ft | 270 kts | 238° |
| 2026-05-08 01:05 | 42.32583 | -71.26427 | 10597 ft | 279 kts | 237° |
| 2026-05-08 01:06 | 42.31417 | -71.28641 | 11077 ft | 298 kts | 237° |
| 2026-05-08 01:06 | 42.30191 | -71.30968 | 11709 ft | 309 kts | 237° |
| 2026-05-08 01:06 | 42.28931 | -71.33356 | 12536 ft | 313 kts | 237° |
| 2026-05-08 01:06 | 42.27673 | -71.35740 | 13539 ft | 313 kts | 237° |
| 2026-05-08 01:07 | 42.26416 | -71.38120 | 13924 ft | 314 kts | 237° |
| 2026-05-08 01:07 | 42.25153 | -71.40511 | 14009 ft | 312 kts | 237° |
| 2026-05-08 01:07 | 42.23895 | -71.42890 | 14023 ft | 311 kts | 237° |
| 2026-05-08 01:07 | 42.22637 | -71.45267 | 14022 ft | 311 kts | 237° |
| 2026-05-08 01:08 | 42.21381 | -71.47637 | 14030 ft | 311 kts | 237° |
| 2026-05-08 01:08 | 42.20126 | -71.50004 | 14030 ft | 311 kts | 237° |
| 2026-05-08 01:08 | 42.18867 | -71.52378 | 14027 ft | 311 kts | 237° |
| 2026-05-08 01:08 | 42.17609 | -71.54747 | 14041 ft | 311 kts | 237° |
| 2026-05-08 01:09 | 42.16349 | -71.57120 | 14046 ft | 311 kts | 237° |
| 2026-05-08 01:09 | 42.15088 | -71.59489 | 14051 ft | 311 kts | 237° |
| 2026-05-08 01:09 | 42.13824 | -71.61863 | 14168 ft | 314 kts | 237° |
| 2026-05-08 01:09 | 42.12553 | -71.64249 | 15048 ft | 311 kts | 236° |
| 2026-05-08 01:10 | 42.11293 | -71.66611 | 15967 ft | 310 kts | 236° |
| 2026-05-08 01:10 | 42.10031 | -71.68978 | 16801 ft | 312 kts | 236° |
| 2026-05-08 01:10 | 42.09004 | -71.71539 | 17613 ft | 313 kts | 251° |
| 2026-05-08 01:10 | 42.08516 | -71.74404 | 18404 ft | 315 kts | 254° |
| 2026-05-08 01:11 | 42.08050 | -71.77274 | 18989 ft | 320 kts | 255° |
| 2026-05-08 01:11 | 42.07591 | -71.80211 | 19622 ft | 323 kts | 255° |
| 2026-05-08 01:11 | 42.07135 | -71.83195 | 20215 ft | 326 kts | 255° |
| 2026-05-08 01:11 | 42.06682 | -71.86202 | 20834 ft | 329 kts | 255° |
| 2026-05-08 01:12 | 42.06227 | -71.89246 | 21430 ft | 333 kts | 255° |
| 2026-05-08 01:12 | 42.05770 | -71.92306 | 22064 ft | 336 kts | 255° |
| 2026-05-08 01:12 | 42.05311 | -71.95388 | 22634 ft | 339 kts | 255° |
| 2026-05-08 01:12 | 42.04849 | -71.98478 | 23214 ft | 342 kts | 256° |
| 2026-05-08 01:13 | 42.04377 | -72.01636 | 23691 ft | 346 kts | 256° |
| 2026-05-08 01:13 | 42.03907 | -72.04773 | 24191 ft | 347 kts | 256° |
| 2026-05-08 01:13 | 42.03428 | -72.07971 | 24689 ft | 349 kts | 256° |
| 2026-05-08 01:13 | 42.02944 | -72.11184 | 25194 ft | 351 kts | 256° |
| 2026-05-08 01:14 | 42.02457 | -72.14411 | 25657 ft | 353 kts | 256° |
| 2026-05-08 01:14 | 42.01966 | -72.17664 | 26083 ft | 355 kts | 256° |
| 2026-05-08 01:14 | 42.01472 | -72.20930 | 26524 ft | 357 kts | 257° |
| 2026-05-08 01:14 | 42.00974 | -72.24212 | 26989 ft | 359 kts | 256° |
| 2026-05-08 01:15 | 42.00472 | -72.27514 | 27502 ft | 360 kts | 257° |
| 2026-05-08 01:15 | 41.99969 | -72.30816 | 28025 ft | 360 kts | 257° |
| 2026-05-08 01:15 | 41.99470 | -72.34084 | 28506 ft | 361 kts | 257° |
| 2026-05-08 01:15 | 41.98973 | -72.37334 | 29140 ft | 358 kts | 257° |
| 2026-05-08 01:16 | 41.98473 | -72.40601 | 29717 ft | 357 kts | 257° |
| 2026-05-08 01:16 | 41.97971 | -72.43870 | 29873 ft | 355 kts | 257° |
| 2026-05-08 01:16 | 41.97472 | -72.47111 | 29870 ft | 353 kts | 257° |
| 2026-05-08 01:17 | 41.96477 | -72.53562 | 29883 ft | 352 kts | 257° |
| 2026-05-08 01:17 | 41.95479 | -72.60007 | 29876 ft | 352 kts | 257° |
| 2026-05-08 01:18 | 41.94465 | -72.66386 | 29883 ft | 347 kts | 253° |
| 2026-05-08 01:18 | 41.93409 | -72.69287 | 29870 ft | 349 kts | 237° |
| 2026-05-08 01:18 | 41.91794 | -72.71759 | 29879 ft | 354 kts | 233° |
| 2026-05-08 01:19 | 41.88418 | -72.76611 | 29867 ft | 357 kts | 232° |
| 2026-05-08 01:19 | 41.84990 | -72.81383 | 29860 ft | 357 kts | 231° |
| 2026-05-08 01:20 | 41.81521 | -72.86155 | 29888 ft | 357 kts | 231° |
| 2026-05-08 01:20 | 41.78041 | -72.90923 | 29883 ft | 357 kts | 231° |
| 2026-05-08 01:21 | 41.74561 | -72.95682 | 29924 ft | 357 kts | 231° |
| 2026-05-08 01:21 | 41.71673 | -72.99626 | 29885 ft | 356 kts | 232° |
| 2026-05-08 01:22 | 41.67635 | -73.05131 | 29893 ft | 356 kts | 232° |
| 2026-05-08 01:22 | 41.64719 | -73.09098 | 29886 ft | 356 kts | 232° |
| 2026-05-08 01:23 | 41.61241 | -73.13824 | 29902 ft | 356 kts | 231° |
| 2026-05-08 01:23 | 41.57781 | -73.18519 | 29896 ft | 356 kts | 231° |
| 2026-05-08 01:24 | 41.54301 | -73.23234 | 29873 ft | 356 kts | 231° |
| 2026-05-08 01:24 | 41.50814 | -73.27949 | 29889 ft | 356 kts | 231° |
| 2026-05-08 01:25 | 41.47355 | -73.32618 | 29897 ft | 354 kts | 231° |
| 2026-05-08 01:25 | 41.43892 | -73.37287 | 29888 ft | 354 kts | 231° |
| 2026-05-08 01:26 | 41.40426 | -73.41951 | 29890 ft | 354 kts | 231° |
| 2026-05-08 01:26 | 41.36945 | -73.46629 | 29888 ft | 356 kts | 231° |
| 2026-05-08 01:27 | 41.33463 | -73.51302 | 29887 ft | 355 kts | 231° |
| 2026-05-08 01:27 | 41.29984 | -73.55962 | 29892 ft | 355 kts | 231° |
| 2026-05-08 01:28 | 41.26776 | -73.60885 | 29892 ft | 351 kts | 236° |
| 2026-05-08 01:28 | 41.23724 | -73.65922 | 29917 ft | 351 kts | 236° |
| 2026-05-08 01:29 | 41.20638 | -73.70951 | 29873 ft | 351 kts | 236° |
| 2026-05-08 01:29 | 41.17543 | -73.75974 | 29876 ft | 351 kts | 236° |
| 2026-05-08 01:30 | 41.14478 | -73.81023 | 29877 ft | 350 kts | 237° |
| 2026-05-08 01:30 | 41.11481 | -73.86073 | 29876 ft | 350 kts | 237° |
| 2026-05-08 01:31 | 41.08459 | -73.91149 | 29874 ft | 350 kts | 237° |
| 2026-05-08 01:31 | 41.05432 | -73.96221 | 29852 ft | 351 kts | 237° |
| 2026-05-08 01:32 | 41.02399 | -74.01296 | 29887 ft | 351 kts | 236° |
| 2026-05-08 01:32 | 40.99371 | -74.06356 | 29875 ft | 351 kts | 236° |
| 2026-05-08 01:33 | 40.96356 | -74.11384 | 29879 ft | 351 kts | 236° |
| 2026-05-08 01:33 | 40.93317 | -74.16445 | 29886 ft | 352 kts | 236° |
| 2026-05-08 01:34 | 40.90195 | -74.21636 | 29883 ft | 368 kts | 236° |
| 2026-05-08 01:34 | 40.86945 | -74.27029 | 29855 ft | 381 kts | 236° |
| 2026-05-08 01:35 | 40.83616 | -74.32543 | 29884 ft | 384 kts | 236° |
| 2026-05-08 01:35 | 40.80278 | -74.38063 | 29904 ft | 384 kts | 236° |
| 2026-05-08 01:36 | 40.76953 | -74.43554 | 29870 ft | 385 kts | 236° |
| 2026-05-08 01:36 | 40.73606 | -74.49073 | 29872 ft | 385 kts | 236° |
| 2026-05-08 01:37 | 40.70252 | -74.54593 | 29852 ft | 386 kts | 236° |
| 2026-05-08 01:37 | 40.66909 | -74.60087 | 29868 ft | 386 kts | 236° |
| 2026-05-08 01:38 | 40.63543 | -74.65606 | 29866 ft | 386 kts | 236° |
| 2026-05-08 01:38 | 40.60176 | -74.71119 | 29869 ft | 386 kts | 236° |
| 2026-05-08 01:39 | 40.56636 | -74.76462 | 29873 ft | 389 kts | 233° |
| 2026-05-08 01:39 | 40.52949 | -74.81672 | 29856 ft | 388 kts | 233° |
| 2026-05-08 01:40 | 40.49280 | -74.86887 | 29859 ft | 388 kts | 233° |
| 2026-05-08 01:40 | 40.45609 | -74.92104 | 29861 ft | 388 kts | 233° |
| 2026-05-08 01:41 | 40.41957 | -74.97281 | 29861 ft | 388 kts | 233° |
| 2026-05-08 01:41 | 40.38270 | -75.02465 | 29877 ft | 388 kts | 233° |
| 2026-05-08 01:41 | 40.36433 | -75.05044 | 29746 ft | 380 kts | 233° |
| 2026-05-08 01:42 | 40.34637 | -75.07565 | 28879 ft | 379 kts | 233° |
| 2026-05-08 01:42 | 40.32833 | -75.10095 | 27888 ft | 380 kts | 232° |
| 2026-05-08 01:42 | 40.31019 | -75.12638 | 26860 ft | 383 kts | 232° |
| 2026-05-08 01:42 | 40.29188 | -75.15202 | 26373 ft | 391 kts | 232° |
| 2026-05-08 01:43 | 40.27305 | -75.17837 | 26169 ft | 399 kts | 232° |
| 2026-05-08 01:43 | 40.25402 | -75.20497 | 26037 ft | 396 kts | 232° |
| 2026-05-08 01:43 | 40.23584 | -75.23035 | 25941 ft | 381 kts | 232° |
| 2026-05-08 01:43 | 40.21778 | -75.25556 | 25818 ft | 378 kts | 232° |
| 2026-05-08 01:44 | 40.19979 | -75.28065 | 25694 ft | 377 kts | 232° |
| 2026-05-08 01:44 | 40.18217 | -75.30520 | 25542 ft | 366 kts | 232° |
| 2026-05-08 01:44 | 40.16489 | -75.32925 | 25427 ft | 361 kts | 232° |
| 2026-05-08 01:44 | 40.14778 | -75.35305 | 25024 ft | 356 kts | 232° |
| 2026-05-08 01:45 | 40.13085 | -75.37657 | 24391 ft | 355 kts | 232° |
| 2026-05-08 01:45 | 40.11397 | -75.40001 | 23829 ft | 353 kts | 232° |
| 2026-05-08 01:45 | 40.09731 | -75.42313 | 23364 ft | 343 kts | 231° |
| 2026-05-08 01:45 | 40.08130 | -75.44532 | 22902 ft | 326 kts | 232° |
| 2026-05-08 01:46 | 40.06627 | -75.46616 | 22486 ft | 311 kts | 232° |
| 2026-05-08 01:46 | 40.05174 | -75.48629 | 22103 ft | 297 kts | 232° |
| 2026-05-08 01:46 | 40.03783 | -75.50554 | 21750 ft | 287 kts | 232° |
| 2026-05-08 01:46 | 40.02385 | -75.52489 | 21382 ft | 300 kts | 231° |
| 2026-05-08 01:47 | 40.00940 | -75.54486 | 21025 ft | 304 kts | 231° |
| 2026-05-08 01:47 | 39.99478 | -75.56507 | 20609 ft | 308 kts | 231° |
| 2026-05-08 01:47 | 39.98003 | -75.58542 | 20274 ft | 309 kts | 231° |
| 2026-05-08 01:48 | 39.95080 | -75.62572 | 19578 ft | 307 kts | 231° |
| 2026-05-08 01:48 | 39.93614 | -75.64591 | 19225 ft | 305 kts | 231° |
| 2026-05-08 01:48 | 39.92160 | -75.66598 | 18867 ft | 304 kts | 232° |
| 2026-05-08 01:48 | 39.90957 | -75.68824 | 18492 ft | 298 kts | 240° |
| 2026-05-08 01:49 | 39.89828 | -75.71070 | 18156 ft | 295 kts | 239° |
| 2026-05-08 01:49 | 39.88691 | -75.73282 | 17777 ft | 291 kts | 238° |
| 2026-05-08 01:49 | 39.87570 | -75.75442 | 17482 ft | 285 kts | 238° |
| 2026-05-08 01:49 | 39.86464 | -75.77559 | 17182 ft | 281 kts | 238° |
| 2026-05-08 01:50 | 39.85348 | -75.79686 | 16872 ft | 287 kts | 238° |
| 2026-05-08 01:50 | 39.84210 | -75.81848 | 16541 ft | 291 kts | 238° |
| 2026-05-08 01:50 | 39.83065 | -75.84021 | 16217 ft | 291 kts | 238° |
| 2026-05-08 01:50 | 39.81915 | -75.86201 | 15893 ft | 291 kts | 238° |
| 2026-05-08 01:51 | 39.80770 | -75.88370 | 15572 ft | 290 kts | 238° |
| 2026-05-08 01:51 | 39.79628 | -75.90532 | 15241 ft | 289 kts | 239° |
| 2026-05-08 01:51 | 39.78491 | -75.92683 | 14916 ft | 289 kts | 239° |
| 2026-05-08 01:51 | 39.77354 | -75.94832 | 14576 ft | 288 kts | 239° |
| 2026-05-08 01:52 | 39.76219 | -75.96976 | 14253 ft | 287 kts | 239° |
| 2026-05-08 01:52 | 39.75101 | -75.99086 | 13938 ft | 287 kts | 239° |
| 2026-05-08 01:52 | 39.73971 | -76.01229 | 13590 ft | 287 kts | 239° |
| 2026-05-08 01:52 | 39.72847 | -76.03372 | 13174 ft | 286 kts | 239° |
| 2026-05-08 01:53 | 39.71732 | -76.05493 | 12841 ft | 282 kts | 239° |
| 2026-05-08 01:53 | 39.70635 | -76.07579 | 12535 ft | 277 kts | 239° |
| 2026-05-08 01:53 | 39.69551 | -76.09638 | 12225 ft | 275 kts | 239° |
| 2026-05-08 01:53 | 39.68457 | -76.11691 | 11957 ft | 282 kts | 237° |
| 2026-05-08 01:54 | 39.67108 | -76.13604 | 11710 ft | 288 kts | 231° |
| 2026-05-08 01:54 | 39.65752 | -76.15479 | 11492 ft | 281 kts | 232° |
| 2026-05-08 01:54 | 39.64439 | -76.17314 | 11265 ft | 274 kts | 232° |
| 2026-05-08 01:54 | 39.63166 | -76.19107 | 11066 ft | 267 kts | 232° |
| 2026-05-08 01:55 | 39.61927 | -76.20860 | 10868 ft | 260 kts | 232° |
| 2026-05-08 01:55 | 39.60719 | -76.22575 | 10663 ft | 254 kts | 233° |
| 2026-05-08 01:55 | 39.59548 | -76.24239 | 10457 ft | 253 kts | 233° |
| 2026-05-08 01:55 | 39.58342 | -76.25952 | 10272 ft | 254 kts | 232° |
| 2026-05-08 01:56 | 39.57170 | -76.27629 | 10053 ft | 255 kts | 233° |
| 2026-05-08 01:56 | 39.55978 | -76.29336 | 9844 ft | 255 kts | 233° |
| 2026-05-08 01:56 | 39.54785 | -76.31042 | 9636 ft | 256 kts | 232° |
| 2026-05-08 01:56 | 39.53586 | -76.32757 | 9420 ft | 256 kts | 232° |
| 2026-05-08 01:57 | 39.52391 | -76.34465 | 9210 ft | 256 kts | 232° |
| 2026-05-08 01:57 | 39.51192 | -76.36178 | 9006 ft | 256 kts | 232° |
| 2026-05-08 01:57 | 39.50163 | -76.38016 | 8776 ft | 250 kts | 249° |
| 2026-05-08 01:57 | 39.49477 | -76.40080 | 8600 ft | 250 kts | 250° |
| 2026-05-08 01:58 | 39.48785 | -76.42145 | 8417 ft | 250 kts | 250° |
| 2026-05-08 01:58 | 39.48096 | -76.44215 | 8227 ft | 250 kts | 250° |
| 2026-05-08 01:58 | 39.47410 | -76.46279 | 8043 ft | 250 kts | 250° |
| 2026-05-08 01:58 | 39.46726 | -76.48343 | 7838 ft | 249 kts | 250° |
| 2026-05-08 01:59 | 39.46042 | -76.50404 | 7642 ft | 249 kts | 250° |
| 2026-05-08 01:59 | 39.45357 | -76.52467 | 7446 ft | 250 kts | 250° |
| 2026-05-08 01:59 | 39.44672 | -76.54532 | 7255 ft | 250 kts | 250° |
| 2026-05-08 01:59 | 39.43986 | -76.56599 | 7063 ft | 250 kts | 250° |
| 2026-05-08 02:00 | 39.43309 | -76.58638 | 6863 ft | 250 kts | 250° |
| 2026-05-08 02:00 | 39.42621 | -76.60707 | 6665 ft | 251 kts | 250° |
| 2026-05-08 02:00 | 39.41931 | -76.62778 | 6476 ft | 251 kts | 250° |
| 2026-05-08 02:00 | 39.41240 | -76.64853 | 6278 ft | 251 kts | 250° |
| 2026-05-08 02:01 | 39.40548 | -76.66931 | 6071 ft | 251 kts | 250° |
| 2026-05-08 02:01 | 39.39856 | -76.69005 | 5871 ft | 251 kts | 250° |
| 2026-05-08 02:01 | 39.39168 | -76.71068 | 5667 ft | 248 kts | 250° |
| 2026-05-08 02:01 | 39.38430 | -76.73055 | 5445 ft | 244 kts | 244° |
| 2026-05-08 02:02 | 39.37601 | -76.74941 | 5256 ft | 239 kts | 244° |
| 2026-05-08 02:02 | 39.36796 | -76.76796 | 5096 ft | 233 kts | 244° |
| 2026-05-08 02:02 | 39.36015 | -76.78604 | 4925 ft | 227 kts | 244° |
| 2026-05-08 02:02 | 39.35270 | -76.80341 | 4762 ft | 221 kts | 244° |
| 2026-05-08 02:03 | 39.34524 | -76.82058 | 4579 ft | 217 kts | 240° |
| 2026-05-08 02:03 | 39.33415 | -76.83351 | 4349 ft | 220 kts | 209° |
| 2026-05-08 02:03 | 39.31973 | -76.84070 | 4197 ft | 224 kts | 203° |
| 2026-05-08 02:03 | 39.30500 | -76.84749 | 4068 ft | 224 kts | 202° |
| 2026-05-08 02:04 | 39.29183 | -76.85721 | 3980 ft | 216 kts | 230° |
| 2026-05-08 02:04 | 39.28295 | -76.87278 | 4017 ft | 216 kts | 239° |
| 2026-05-08 02:04 | 39.27717 | -76.88363 | 4031 ft | 217 kts | 239° |
| 2026-05-08 02:04 | 39.26883 | -76.89956 | 4027 ft | 217 kts | 239° |
| 2026-05-08 02:05 | 39.26054 | -76.91585 | 4028 ft | 216 kts | 244° |
| 2026-05-08 02:05 | 39.25708 | -76.93398 | 3994 ft | 207 kts | 273° |
| 2026-05-08 02:05 | 39.25760 | -76.95267 | 4059 ft | 210 kts | 274° |
| 2026-05-08 02:05 | 39.25827 | -76.97152 | 4054 ft | 210 kts | 275° |
| 2026-05-08 02:06 | 39.25865 | -76.99035 | 4029 ft | 211 kts | 262° |
| 2026-05-08 02:06 | 39.25243 | -77.00723 | 3974 ft | 210 kts | 229° |
| 2026-05-08 02:06 | 39.24005 | -77.01623 | 3964 ft | 202 kts | 196° |
| 2026-05-08 02:06 | 39.22674 | -77.01810 | 3693 ft | 192 kts | 187° |
| 2026-05-08 02:07 | 39.21322 | -77.01916 | 3151 ft | 194 kts | 187° |
| 2026-05-08 02:07 | 39.20015 | -77.01721 | 3087 ft | 192 kts | 163° |
| 2026-05-08 02:07 | 39.18873 | -77.00838 | 3060 ft | 199 kts | 134° |
| 2026-05-08 02:07 | 39.18260 | -76.99261 | 3025 ft | 200 kts | 98° |
| 2026-05-08 02:08 | 39.18393 | -76.97511 | 3057 ft | 197 kts | 71° |
| 2026-05-08 02:08 | 39.18726 | -76.95781 | 3061 ft | 199 kts | 78° |
| 2026-05-08 02:08 | 39.18853 | -76.94020 | 3031 ft | 190 kts | 88° |
| 2026-05-08 02:08 | 39.18804 | -76.92455 | 3065 ft | 165 kts | 92° |
| 2026-05-08 02:09 | 39.18724 | -76.91009 | 3063 ft | 160 kts | 92° |
| 2026-05-08 02:09 | 39.18644 | -76.89584 | 3033 ft | 159 kts | 92° |
| 2026-05-08 02:09 | 39.18564 | -76.88162 | 3033 ft | 159 kts | 92° |
| 2026-05-08 02:09 | 39.18484 | -76.86738 | 3007 ft | 160 kts | 92° |
| 2026-05-08 02:10 | 39.18414 | -76.85299 | 2835 ft | 164 kts | 92° |
| 2026-05-08 02:10 | 39.18359 | -76.83846 | 2570 ft | 163 kts | 94° |
| 2026-05-08 02:10 | 39.18250 | -76.82378 | 2352 ft | 165 kts | 95° |
| 2026-05-08 02:10 | 39.18174 | -76.80940 | 2080 ft | 160 kts | 98° |
| 2026-05-08 02:11 | 39.18078 | -76.79534 | 1834 ft | 159 kts | 96° |
| 2026-05-08 02:11 | 39.18025 | -76.78111 | 1618 ft | 159 kts | 98° |
| 2026-05-08 02:11 | 39.17919 | -76.76707 | 1380 ft | 155 kts | 99° |
| 2026-05-08 02:11 | 39.17825 | -76.75323 | 1165 ft | 155 kts | 95° |
| 2026-05-08 02:12 | 39.17779 | -76.73941 | 940 ft | 154 kts | 95° |
| 2026-05-08 02:12 | 39.17680 | -76.72581 | 773 ft | 152 kts | 98° |
| 2026-05-08 02:12 | 39.17609 | -76.71231 | 584 ft | 149 kts | 96° |
| 2026-05-08 02:12 | 39.17530 | -76.69886 | 365 ft | 152 kts | 99° |
| 2026-05-08 02:13 | 39.17454 | -76.68535 | 166 ft | 148 kts | 97° |
| 2026-05-08 02:13 | 39.17383 | -76.67369 | 154 ft | 103 kts | 94° |
| 2026-05-08 02:13 | 39.17347 | -76.66721 | 155 ft | 41 kts | 91° |
| 2026-05-08 02:13 | 39.17398 | -76.66590 | 157 ft | 11 kts | 20° |
| 2026-05-08 02:14 | 39.17432 | -76.66598 | 157 ft | 6 kts | 315° |
| 2026-05-08 02:14 | 39.17456 | -76.66720 | 158 ft | 23 kts | 274° |
| 2026-05-08 02:14 | 39.17515 | -76.66851 | 159 ft | 14 kts | 325° |
| 2026-05-08 02:14 | 39.17544 | -76.66950 | 160 ft | 12 kts | 289° |
| 2026-05-08 02:15 | 39.17590 | -76.67039 | 159 ft | 5 kts | 319° |
| 2026-05-08 02:15 | 39.17606 | -76.67054 | 159 ft | 2 kts | 324° |
| 2026-05-08 02:15 | 39.17623 | -76.67067 | 159 ft | 5 kts | 331° |
| 2026-05-08 02:15 | 39.17669 | -76.67066 | 159 ft | 8 kts | 51° |
| 2026-05-08 02:16 | 39.17674 | -76.67051 | 159 ft | 3 kts | 67° |
| 2026-05-08 02:16 | 39.17677 | -76.67029 | 159 ft | 0 kts | 85° |
| 2026-05-08 02:16 | 39.17678 | -76.67019 | 159 ft | 2 kts | 86° |
| 2026-05-08 02:16 | 39.17678 | -76.67015 | 159 ft | 0 kts | 86° |